sensor_id;sensor_type;location;lat;lon;timestamp;P1;durP1;ratioP1;P2;durP2;ratioP2
8187;SDS011;4135;49.184;9.722;2022-11-15T00:02:06;3.00;;;2.00;;
8187;SDS011;4135;49.184;9.722;2022-11-15T00:04:35;3.55;;;1.63;;
8187;SDS011;4135;49.184;9.722;2022-11-15T00:07:05;3.45;;;1.55;;
8187;SDS011;4135;49.184;9.722;2022-11-15T00:09:34;3.67;;;1.23;;
8187;SDS011;4135;49.184;9.722;2022-11-15T00:12:04;3.95;;;1.63;;
8187;SDS011;4135;49.184;9.722;2022-11-15T00:14:34;2.67;;;2.13;;
8187;SDS011;4135;49.184;9.722;2022-11-15T00:17:03;2.63;;;1.58;;
8187;SDS011;4135;49.184;9.722;2022-11-15T00:19:33;4.22;;;1.77;;
8187;SDS011;4135;49.184;9.722;2022-11-15T00:22:02;3.55;;;1.40;;
8187;SDS011;4135;49.184;9.722;2022-11-15T00:24:32;1.58;;;0.85;;
8187;SDS011;4135;49.184;9.722;2022-11-15T00:27:01;2.63;;;1.10;;
8187;SDS011;4135;49.184;9.722;2022-11-15T00:29:31;2.92;;;1.90;;
8187;SDS011;4135;49.184;9.722;2022-11-15T00:32:00;3.58;;;1.35;;
8187;SDS011;4135;49.184;9.722;2022-11-15T00:34:30;2.83;;;1.50;;
8187;SDS011;4135;49.184;9.722;2022-11-15T00:36:59;2.28;;;1.40;;
8187;SDS011;4135;49.184;9.722;2022-11-15T00:39:29;2.08;;;1.20;;
8187;SDS011;4135;49.184;9.722;2022-11-15T00:41:58;3.25;;;1.63;;
8187;SDS011;4135;49.184;9.722;2022-11-15T00:44:28;2.17;;;1.38;;
8187;SDS011;4135;49.184;9.722;2022-11-15T00:46:57;4.53;;;1.42;;
8187;SDS011;4135;49.184;9.722;2022-11-15T00:49:27;2.35;;;1.23;;
8187;SDS011;4135;49.184;9.722;2022-11-15T00:51:56;2.75;;;1.17;;
8187;SDS011;4135;49.184;9.722;2022-11-15T00:54:26;1.58;;;1.15;;
8187;SDS011;4135;49.184;9.722;2022-11-15T00:56:55;2.78;;;1.55;;
8187;SDS011;4135;49.184;9.722;2022-11-15T00:59:25;2.17;;;1.30;;
8187;SDS011;4135;49.184;9.722;2022-11-15T01:01:54;3.40;;;1.23;;
8187;SDS011;4135;49.184;9.722;2022-11-15T01:04:24;1.48;;;1.10;;
8187;SDS011;4135;49.184;9.722;2022-11-15T01:06:53;4.90;;;0.93;;
8187;SDS011;4135;49.184;9.722;2022-11-15T01:09:23;2.53;;;1.23;;
8187;SDS011;4135;49.184;9.722;2022-11-15T01:11:53;2.33;;;1.00;;
8187;SDS011;4135;49.184;9.722;2022-11-15T01:14:22;3.90;;;1.15;;
8187;SDS011;4135;49.184;9.722;2022-11-15T01:16:52;2.70;;;1.35;;
8187;SDS011;4135;49.184;9.722;2022-11-15T01:19:21;1.70;;;1.00;;
8187;SDS011;4135;49.184;9.722;2022-11-15T01:21:51;3.15;;;1.25;;
8187;SDS011;4135;49.184;9.722;2022-11-15T01:24:20;1.90;;;1.17;;
8187;SDS011;4135;49.184;9.722;2022-11-15T01:26:50;2.35;;;0.93;;
8187;SDS011;4135;49.184;9.722;2022-11-15T01:29:19;4.72;;;1.70;;
8187;SDS011;4135;49.184;9.722;2022-11-15T01:31:49;2.22;;;1.15;;
8187;SDS011;4135;49.184;9.722;2022-11-15T01:34:19;2.67;;;1.23;;
8187;SDS011;4135;49.184;9.722;2022-11-15T01:36:48;2.00;;;1.52;;
8187;SDS011;4135;49.184;9.722;2022-11-15T01:39:18;2.25;;;1.42;;
8187;SDS011;4135;49.184;9.722;2022-11-15T01:41:47;3.08;;;1.60;;
8187;SDS011;4135;49.184;9.722;2022-11-15T01:47:15;2.28;;;1.13;;
8187;SDS011;4135;49.184;9.722;2022-11-15T01:49:50;1.05;;;1.00;;
8187;SDS011;4135;49.184;9.722;2022-11-15T01:52:24;2.13;;;1.08;;
8187;SDS011;4135;49.184;9.722;2022-11-15T01:54:57;4.32;;;1.10;;
8187;SDS011;4135;49.184;9.722;2022-11-15T01:57:35;2.00;;;1.25;;
8187;SDS011;4135;49.184;9.722;2022-11-15T02:00:06;1.85;;;1.10;;
8187;SDS011;4135;49.184;9.722;2022-11-15T02:02:36;2.45;;;1.10;;
8187;SDS011;4135;49.184;9.722;2022-11-15T02:05:07;1.60;;;0.90;;
8187;SDS011;4135;49.184;9.722;2022-11-15T02:07:36;2.60;;;1.20;;
8187;SDS011;4135;49.184;9.722;2022-11-15T02:10:11;1.35;;;0.95;;
8187;SDS011;4135;49.184;9.722;2022-11-15T02:12:42;2.83;;;1.23;;
8187;SDS011;4135;49.184;9.722;2022-11-15T02:15:12;1.05;;;0.90;;
8187;SDS011;4135;49.184;9.722;2022-11-15T02:29:10;1.77;;;1.15;;
8187;SDS011;4135;49.184;9.722;2022-11-15T02:37:57;1.95;;;1.30;;
8187;SDS011;4135;49.184;9.722;2022-11-15T02:40:44;4.55;;;1.23;;
8187;SDS011;4135;49.184;9.722;2022-11-15T02:43:20;4.93;;;1.33;;
8187;SDS011;4135;49.184;9.722;2022-11-15T02:48:49;2.08;;;1.00;;
8187;SDS011;4135;49.184;9.722;2022-11-15T02:51:19;1.33;;;0.85;;
8187;SDS011;4135;49.184;9.722;2022-11-15T02:53:50;2.38;;;1.25;;
8187;SDS011;4135;49.184;9.722;2022-11-15T02:56:19;1.58;;;1.15;;
8187;SDS011;4135;49.184;9.722;2022-11-15T03:04:43;1.70;;;1.13;;
8187;SDS011;4135;49.184;9.722;2022-11-15T03:07:28;1.65;;;1.00;;
8187;SDS011;4135;49.184;9.722;2022-11-15T03:16:09;2.50;;;1.15;;
8187;SDS011;4135;49.184;9.722;2022-11-15T03:18:55;1.50;;;0.93;;
8187;SDS011;4135;49.184;9.722;2022-11-15T03:21:35;2.67;;;0.93;;
8187;SDS011;4135;49.184;9.722;2022-11-15T03:24:06;1.65;;;0.95;;
8187;SDS011;4135;49.184;9.722;2022-11-15T03:26:37;2.58;;;0.85;;
8187;SDS011;4135;49.184;9.722;2022-11-15T03:29:11;1.75;;;1.10;;
8187;SDS011;4135;49.184;9.722;2022-11-15T03:31:46;1.33;;;0.70;;
8187;SDS011;4135;49.184;9.722;2022-11-15T03:34:28;2.35;;;1.00;;
8187;SDS011;4135;49.184;9.722;2022-11-15T03:37:11;1.42;;;1.02;;
8187;SDS011;4135;49.184;9.722;2022-11-15T03:39:43;3.28;;;1.02;;
8187;SDS011;4135;49.184;9.722;2022-11-15T03:44:54;1.95;;;1.17;;
8187;SDS011;4135;49.184;9.722;2022-11-15T03:47:32;2.17;;;1.00;;
8187;SDS011;4135;49.184;9.722;2022-11-15T03:50:08;2.53;;;0.80;;
8187;SDS011;4135;49.184;9.722;2022-11-15T03:52:41;2.35;;;1.00;;
8187;SDS011;4135;49.184;9.722;2022-11-15T03:55:15;1.85;;;1.00;;
8187;SDS011;4135;49.184;9.722;2022-11-15T03:57:50;1.80;;;0.55;;
8187;SDS011;4135;49.184;9.722;2022-11-15T04:00:22;2.72;;;1.10;;
8187;SDS011;4135;49.184;9.722;2022-11-15T04:02:52;2.22;;;1.02;;
8187;SDS011;4135;49.184;9.722;2022-11-15T04:05:21;2.05;;;0.75;;
8187;SDS011;4135;49.184;9.722;2022-11-15T04:07:51;2.83;;;1.02;;
8187;SDS011;4135;49.184;9.722;2022-11-15T04:10:20;1.23;;;0.70;;
8187;SDS011;4135;49.184;9.722;2022-11-15T04:12:50;3.72;;;1.27;;
8187;SDS011;4135;49.184;9.722;2022-11-15T04:15:20;0.90;;;0.80;;
8187;SDS011;4135;49.184;9.722;2022-11-15T04:17:52;1.20;;;0.82;;
8187;SDS011;4135;49.184;9.722;2022-11-15T04:20:28;1.15;;;0.77;;
8187;SDS011;4135;49.184;9.722;2022-11-15T04:23:18;5.63;;;0.95;;
8187;SDS011;4135;49.184;9.722;2022-11-15T04:26:11;2.35;;;1.17;;
8187;SDS011;4135;49.184;9.722;2022-11-15T04:28:44;1.20;;;0.77;;
8187;SDS011;4135;49.184;9.722;2022-11-15T04:31:32;1.73;;;1.00;;
8187;SDS011;4135;49.184;9.722;2022-11-15T04:34:01;1.80;;;1.13;;
8187;SDS011;4135;49.184;9.722;2022-11-15T04:36:31;2.03;;;1.00;;
8187;SDS011;4135;49.184;9.722;2022-11-15T04:39:19;0.85;;;0.68;;
8187;SDS011;4135;49.184;9.722;2022-11-15T04:41:48;1.95;;;0.88;;
8187;SDS011;4135;49.184;9.722;2022-11-15T04:44:18;1.50;;;0.77;;
8187;SDS011;4135;49.184;9.722;2022-11-15T04:46:47;1.35;;;0.82;;
8187;SDS011;4135;49.184;9.722;2022-11-15T04:49:17;1.60;;;1.00;;
8187;SDS011;4135;49.184;9.722;2022-11-15T04:51:46;1.92;;;1.02;;
8187;SDS011;4135;49.184;9.722;2022-11-15T04:54:16;1.23;;;0.90;;
8187;SDS011;4135;49.184;9.722;2022-11-15T04:56:46;1.02;;;0.90;;
8187;SDS011;4135;49.184;9.722;2022-11-15T04:59:15;2.78;;;1.00;;
8187;SDS011;4135;49.184;9.722;2022-11-15T05:01:45;1.65;;;0.80;;
8187;SDS011;4135;49.184;9.722;2022-11-15T05:04:14;2.42;;;1.08;;
8187;SDS011;4135;49.184;9.722;2022-11-15T05:06:50;1.92;;;0.88;;
8187;SDS011;4135;49.184;9.722;2022-11-15T05:09:20;1.95;;;0.93;;
8187;SDS011;4135;49.184;9.722;2022-11-15T05:11:50;2.05;;;0.90;;
8187;SDS011;4135;49.184;9.722;2022-11-15T05:14:20;1.88;;;1.00;;
8187;SDS011;4135;49.184;9.722;2022-11-15T05:16:49;1.52;;;1.05;;
8187;SDS011;4135;49.184;9.722;2022-11-15T05:19:19;0.80;;;0.60;;
8187;SDS011;4135;49.184;9.722;2022-11-15T05:21:48;2.72;;;0.90;;
8187;SDS011;4135;49.184;9.722;2022-11-15T05:24:18;1.85;;;0.75;;
8187;SDS011;4135;49.184;9.722;2022-11-15T05:26:47;3.13;;;1.15;;
8187;SDS011;4135;49.184;9.722;2022-11-15T05:29:17;1.83;;;0.70;;
8187;SDS011;4135;49.184;9.722;2022-11-15T05:31:46;1.42;;;0.85;;
8187;SDS011;4135;49.184;9.722;2022-11-15T05:34:16;2.00;;;1.20;;
8187;SDS011;4135;49.184;9.722;2022-11-15T05:36:47;1.50;;;0.88;;
8187;SDS011;4135;49.184;9.722;2022-11-15T05:39:16;1.83;;;1.00;;
8187;SDS011;4135;49.184;9.722;2022-11-15T05:41:47;1.15;;;0.85;;
8187;SDS011;4135;49.184;9.722;2022-11-15T05:44:22;1.75;;;0.77;;
8187;SDS011;4135;49.184;9.722;2022-11-15T05:46:52;4.32;;;0.95;;
8187;SDS011;4135;49.184;9.722;2022-11-15T05:49:25;1.70;;;0.93;;
8187;SDS011;4135;49.184;9.722;2022-11-15T05:51:59;2.60;;;1.27;;
8187;SDS011;4135;49.184;9.722;2022-11-15T05:54:29;1.52;;;0.80;;
8187;SDS011;4135;49.184;9.722;2022-11-15T05:57:00;1.85;;;1.00;;
8187;SDS011;4135;49.184;9.722;2022-11-15T05:59:30;2.38;;;1.23;;
8187;SDS011;4135;49.184;9.722;2022-11-15T06:02:01;1.60;;;0.82;;
8187;SDS011;4135;49.184;9.722;2022-11-15T06:04:31;5.30;;;1.13;;
8187;SDS011;4135;49.184;9.722;2022-11-15T06:07:00;7.80;;;1.15;;
8187;SDS011;4135;49.184;9.722;2022-11-15T06:09:30;3.95;;;1.20;;
8187;SDS011;4135;49.184;9.722;2022-11-15T06:12:00;9.65;;;1.80;;
8187;SDS011;4135;49.184;9.722;2022-11-15T06:14:29;4.35;;;1.85;;
8187;SDS011;4135;49.184;9.722;2022-11-15T06:16:59;3.35;;;1.50;;
8187;SDS011;4135;49.184;9.722;2022-11-15T06:19:28;4.85;;;1.42;;
8187;SDS011;4135;49.184;9.722;2022-11-15T06:22:01;6.97;;;1.20;;
8187;SDS011;4135;49.184;9.722;2022-11-15T06:24:31;7.13;;;1.55;;
8187;SDS011;4135;49.184;9.722;2022-11-15T06:27:00;3.13;;;1.20;;
8187;SDS011;4135;49.184;9.722;2022-11-15T06:29:30;5.65;;;1.48;;
8187;SDS011;4135;49.184;9.722;2022-11-15T06:31:59;2.50;;;1.50;;
8187;SDS011;4135;49.184;9.722;2022-11-15T06:34:29;4.80;;;1.88;;
8187;SDS011;4135;49.184;9.722;2022-11-15T06:36:58;8.85;;;2.15;;
8187;SDS011;4135;49.184;9.722;2022-11-15T06:39:28;3.33;;;1.77;;
8187;SDS011;4135;49.184;9.722;2022-11-15T06:41:57;4.45;;;2.15;;
8187;SDS011;4135;49.184;9.722;2022-11-15T06:44:27;6.47;;;1.80;;
8187;SDS011;4135;49.184;9.722;2022-11-15T06:46:56;4.97;;;1.67;;
8187;SDS011;4135;49.184;9.722;2022-11-15T06:49:26;6.72;;;1.83;;
8187;SDS011;4135;49.184;9.722;2022-11-15T06:51:55;4.20;;;1.35;;
8187;SDS011;4135;49.184;9.722;2022-11-15T06:54:25;2.42;;;1.10;;
8187;SDS011;4135;49.184;9.722;2022-11-15T06:56:54;3.78;;;1.92;;
8187;SDS011;4135;49.184;9.722;2022-11-15T06:59:24;3.97;;;1.42;;
8187;SDS011;4135;49.184;9.722;2022-11-15T07:01:53;6.82;;;1.73;;
8187;SDS011;4135;49.184;9.722;2022-11-15T07:04:23;3.75;;;1.25;;
8187;SDS011;4135;49.184;9.722;2022-11-15T07:06:52;5.55;;;1.17;;
8187;SDS011;4135;49.184;9.722;2022-11-15T07:09:22;4.30;;;1.52;;
8187;SDS011;4135;49.184;9.722;2022-11-15T07:11:51;3.67;;;1.77;;
8187;SDS011;4135;49.184;9.722;2022-11-15T07:14:21;3.60;;;1.92;;
8187;SDS011;4135;49.184;9.722;2022-11-15T07:16:50;5.38;;;2.00;;
8187;SDS011;4135;49.184;9.722;2022-11-15T07:19:20;5.05;;;2.25;;
8187;SDS011;4135;49.184;9.722;2022-11-15T07:21:49;2.83;;;1.65;;
8187;SDS011;4135;49.184;9.722;2022-11-15T07:24:19;5.43;;;2.08;;
8187;SDS011;4135;49.184;9.722;2022-11-15T07:26:48;2.72;;;1.38;;
8187;SDS011;4135;49.184;9.722;2022-11-15T07:29:18;4.43;;;1.70;;
8187;SDS011;4135;49.184;9.722;2022-11-15T07:31:47;2.75;;;1.25;;
8187;SDS011;4135;49.184;9.722;2022-11-15T07:34:19;5.05;;;1.25;;
8187;SDS011;4135;49.184;9.722;2022-11-15T07:36:48;2.38;;;1.70;;
8187;SDS011;4135;49.184;9.722;2022-11-15T07:39:18;2.88;;;1.70;;
8187;SDS011;4135;49.184;9.722;2022-11-15T07:41:47;5.10;;;1.92;;
8187;SDS011;4135;49.184;9.722;2022-11-15T07:44:18;3.83;;;1.27;;
8187;SDS011;4135;49.184;9.722;2022-11-15T07:46:47;1.65;;;1.08;;
8187;SDS011;4135;49.184;9.722;2022-11-15T07:49:17;1.92;;;1.23;;
8187;SDS011;4135;49.184;9.722;2022-11-15T07:51:46;1.55;;;0.90;;
8187;SDS011;4135;49.184;9.722;2022-11-15T07:54:16;3.85;;;1.45;;
8187;SDS011;4135;49.184;9.722;2022-11-15T07:56:45;2.38;;;1.63;;
8187;SDS011;4135;49.184;9.722;2022-11-15T07:59:15;3.85;;;1.35;;
8187;SDS011;4135;49.184;9.722;2022-11-15T08:01:44;1.83;;;1.13;;
8187;SDS011;4135;49.184;9.722;2022-11-15T08:04:14;3.45;;;1.13;;
8187;SDS011;4135;49.184;9.722;2022-11-15T08:06:44;6.13;;;1.13;;
8187;SDS011;4135;49.184;9.722;2022-11-15T08:09:13;3.53;;;1.23;;
8187;SDS011;4135;49.184;9.722;2022-11-15T08:11:42;2.15;;;1.27;;
8187;SDS011;4135;49.184;9.722;2022-11-15T08:14:12;6.47;;;1.73;;
8187;SDS011;4135;49.184;9.722;2022-11-15T08:16:42;2.95;;;1.33;;
8187;SDS011;4135;49.184;9.722;2022-11-15T08:19:11;4.38;;;1.60;;
8187;SDS011;4135;49.184;9.722;2022-11-15T08:21:41;1.90;;;0.90;;
8187;SDS011;4135;49.184;9.722;2022-11-15T08:24:10;3.33;;;1.30;;
8187;SDS011;4135;49.184;9.722;2022-11-15T08:26:40;1.67;;;1.40;;
8187;SDS011;4135;49.184;9.722;2022-11-15T08:29:09;2.22;;;1.23;;
8187;SDS011;4135;49.184;9.722;2022-11-15T08:31:39;3.15;;;1.25;;
8187;SDS011;4135;49.184;9.722;2022-11-15T08:34:09;3.38;;;1.15;;
8187;SDS011;4135;49.184;9.722;2022-11-15T08:36:38;2.00;;;1.13;;
8187;SDS011;4135;49.184;9.722;2022-11-15T08:39:10;2.03;;;1.10;;
8187;SDS011;4135;49.184;9.722;2022-11-15T08:41:40;2.88;;;0.90;;
8187;SDS011;4135;49.184;9.722;2022-11-15T08:44:10;2.00;;;1.08;;
8187;SDS011;4135;49.184;9.722;2022-11-15T08:46:40;5.25;;;1.63;;
8187;SDS011;4135;49.184;9.722;2022-11-15T08:49:09;1.67;;;0.90;;
8187;SDS011;4135;49.184;9.722;2022-11-15T08:51:39;2.17;;;0.98;;
8187;SDS011;4135;49.184;9.722;2022-11-15T08:54:08;2.47;;;1.20;;
8187;SDS011;4135;49.184;9.722;2022-11-15T08:56:38;2.33;;;1.17;;
8187;SDS011;4135;49.184;9.722;2022-11-15T08:59:07;2.30;;;1.27;;
8187;SDS011;4135;49.184;9.722;2022-11-15T09:01:37;3.30;;;0.98;;
8187;SDS011;4135;49.184;9.722;2022-11-15T09:04:06;2.30;;;1.17;;
8187;SDS011;4135;49.184;9.722;2022-11-15T09:06:36;2.72;;;1.20;;
8187;SDS011;4135;49.184;9.722;2022-11-15T09:09:05;1.55;;;1.00;;
8187;SDS011;4135;49.184;9.722;2022-11-15T09:11:35;2.50;;;1.30;;
8187;SDS011;4135;49.184;9.722;2022-11-15T09:14:04;2.17;;;1.20;;
8187;SDS011;4135;49.184;9.722;2022-11-15T09:16:34;1.48;;;1.08;;
8187;SDS011;4135;49.184;9.722;2022-11-15T09:19:03;6.50;;;1.48;;
8187;SDS011;4135;49.184;9.722;2022-11-15T09:21:33;2.22;;;0.90;;
8187;SDS011;4135;49.184;9.722;2022-11-15T09:24:02;3.35;;;1.13;;
8187;SDS011;4135;49.184;9.722;2022-11-15T09:26:33;2.42;;;1.20;;
8187;SDS011;4135;49.184;9.722;2022-11-15T09:29:02;1.77;;;0.80;;
8187;SDS011;4135;49.184;9.722;2022-11-15T09:31:32;1.50;;;0.93;;
8187;SDS011;4135;49.184;9.722;2022-11-15T09:34:02;1.05;;;0.98;;
8187;SDS011;4135;49.184;9.722;2022-11-15T09:36:31;2.05;;;1.05;;
8187;SDS011;4135;49.184;9.722;2022-11-15T09:39:01;1.67;;;1.10;;
8187;SDS011;4135;49.184;9.722;2022-11-15T09:44:29;1.65;;;1.08;;
8187;SDS011;4135;49.184;9.722;2022-11-15T09:50:08;1.80;;;0.95;;
8187;SDS011;4135;49.184;9.722;2022-11-15T09:52:42;2.33;;;1.20;;
8187;SDS011;4135;49.184;9.722;2022-11-15T09:55:14;2.38;;;1.20;;
8187;SDS011;4135;49.184;9.722;2022-11-15T09:58:05;0.82;;;0.68;;
8187;SDS011;4135;49.184;9.722;2022-11-15T10:00:47;1.38;;;0.82;;
8187;SDS011;4135;49.184;9.722;2022-11-15T10:03:33;2.85;;;1.17;;
8187;SDS011;4135;49.184;9.722;2022-11-15T10:06:04;2.08;;;1.10;;
8187;SDS011;4135;49.184;9.722;2022-11-15T10:11:25;1.70;;;0.85;;
8187;SDS011;4135;49.184;9.722;2022-11-15T10:14:02;2.53;;;1.00;;
8187;SDS011;4135;49.184;9.722;2022-11-15T10:27:50;1.33;;;1.10;;
8187;SDS011;4135;49.184;9.722;2022-11-15T10:30:28;2.47;;;0.75;;
8187;SDS011;4135;49.184;9.722;2022-11-15T10:41:19;1.00;;;0.77;;
8187;SDS011;4135;49.184;9.722;2022-11-15T10:46:31;1.20;;;0.90;;
8187;SDS011;4135;49.184;9.722;2022-11-15T10:57:18;1.00;;;0.93;;
8187;SDS011;4135;49.184;9.722;2022-11-15T10:59:53;2.00;;;1.05;;
8187;SDS011;4135;49.184;9.722;2022-11-15T11:02:37;1.75;;;0.90;;
8187;SDS011;4135;49.184;9.722;2022-11-15T11:08:02;1.50;;;0.75;;
8187;SDS011;4135;49.184;9.722;2022-11-15T11:10:34;3.80;;;1.05;;
8187;SDS011;4135;49.184;9.722;2022-11-15T11:13:12;1.73;;;1.02;;
8187;SDS011;4135;49.184;9.722;2022-11-15T11:15:54;1.92;;;1.05;;
8187;SDS011;4135;49.184;9.722;2022-11-15T11:18:35;0.75;;;0.57;;
8187;SDS011;4135;49.184;9.722;2022-11-15T11:21:15;3.97;;;1.27;;
8187;SDS011;4135;49.184;9.722;2022-11-15T11:23:54;1.70;;;1.23;;
8187;SDS011;4135;49.184;9.722;2022-11-15T11:26:58;1.27;;;0.75;;
8187;SDS011;4135;49.184;9.722;2022-11-15T11:32:58;0.98;;;0.80;;
8187;SDS011;4135;49.184;9.722;2022-11-15T11:38:55;1.83;;;1.05;;
8187;SDS011;4135;49.184;9.722;2022-11-15T11:47:24;0.68;;;0.63;;
8187;SDS011;4135;49.184;9.722;2022-11-15T11:50:17;2.63;;;0.65;;
8187;SDS011;4135;49.184;9.722;2022-11-15T11:53:03;1.58;;;0.75;;
8187;SDS011;4135;49.184;9.722;2022-11-15T11:55:43;0.80;;;0.77;;
8187;SDS011;4135;49.184;9.722;2022-11-15T11:58:19;2.65;;;1.05;;
8187;SDS011;4135;49.184;9.722;2022-11-15T12:03:51;1.45;;;0.88;;
8187;SDS011;4135;49.184;9.722;2022-11-15T12:09:12;2.80;;;0.93;;
8187;SDS011;4135;49.184;9.722;2022-11-15T12:14:42;1.42;;;0.80;;
8187;SDS011;4135;49.184;9.722;2022-11-15T12:17:31;1.38;;;0.85;;
8187;SDS011;4135;49.184;9.722;2022-11-15T12:20:02;1.52;;;0.90;;
8187;SDS011;4135;49.184;9.722;2022-11-15T12:22:54;1.25;;;0.82;;
8187;SDS011;4135;49.184;9.722;2022-11-15T12:31:05;1.80;;;1.00;;
8187;SDS011;4135;49.184;9.722;2022-11-15T12:33:48;2.20;;;0.93;;
8187;SDS011;4135;49.184;9.722;2022-11-15T12:38:55;2.80;;;0.80;;
8187;SDS011;4135;49.184;9.722;2022-11-15T12:41:34;2.10;;;0.63;;
8187;SDS011;4135;49.184;9.722;2022-11-15T12:44:10;1.05;;;0.70;;
8187;SDS011;4135;49.184;9.722;2022-11-15T12:49:44;2.97;;;1.08;;
8187;SDS011;4135;49.184;9.722;2022-11-15T12:52:08;1.13;;;0.63;;
8187;SDS011;4135;49.184;9.722;2022-11-15T12:59:56;1.55;;;0.82;;
8187;SDS011;4135;49.184;9.722;2022-11-15T13:02:42;2.05;;;1.05;;
8187;SDS011;4135;49.184;9.722;2022-11-15T13:10:37;1.33;;;0.60;;
8187;SDS011;4135;49.184;9.722;2022-11-15T13:13:07;0.98;;;0.80;;
8187;SDS011;4135;49.184;9.722;2022-11-15T13:15:59;1.35;;;0.90;;
8187;SDS011;4135;49.184;9.722;2022-11-15T13:18:32;1.40;;;0.77;;
8187;SDS011;4135;49.184;9.722;2022-11-15T13:21:19;2.15;;;0.90;;
8187;SDS011;4135;49.184;9.722;2022-11-15T13:24:11;1.17;;;0.93;;
8187;SDS011;4135;49.184;9.722;2022-11-15T13:26:42;2.22;;;0.77;;
8187;SDS011;4135;49.184;9.722;2022-11-15T13:29:16;1.17;;;0.85;;
8187;SDS011;4135;49.184;9.722;2022-11-15T13:31:47;2.00;;;1.13;;
8187;SDS011;4135;49.184;9.722;2022-11-15T13:36:59;3.75;;;1.00;;
8187;SDS011;4135;49.184;9.722;2022-11-15T13:39:33;1.60;;;1.00;;
8187;SDS011;4135;49.184;9.722;2022-11-15T13:42:13;1.92;;;1.17;;
8187;SDS011;4135;49.184;9.722;2022-11-15T13:44:56;1.23;;;0.90;;
8187;SDS011;4135;49.184;9.722;2022-11-15T13:47:28;0.93;;;0.90;;
8187;SDS011;4135;49.184;9.722;2022-11-15T13:49:59;2.17;;;0.98;;
8187;SDS011;4135;49.184;9.722;2022-11-15T13:52:33;2.08;;;0.85;;
8187;SDS011;4135;49.184;9.722;2022-11-15T13:55:19;0.80;;;0.57;;
8187;SDS011;4135;49.184;9.722;2022-11-15T14:00:32;1.42;;;1.02;;
8187;SDS011;4135;49.184;9.722;2022-11-15T14:03:06;1.02;;;0.85;;
8187;SDS011;4135;49.184;9.722;2022-11-15T14:08:36;1.55;;;0.77;;
8187;SDS011;4135;49.184;9.722;2022-11-15T14:11:12;1.77;;;1.25;;
8187;SDS011;4135;49.184;9.722;2022-11-15T14:14:04;2.55;;;0.77;;
8187;SDS011;4135;49.184;9.722;2022-11-15T14:16:43;1.08;;;0.70;;
8187;SDS011;4135;49.184;9.722;2022-11-15T14:22:09;2.58;;;1.00;;
8187;SDS011;4135;49.184;9.722;2022-11-15T14:24:42;2.65;;;1.17;;
8187;SDS011;4135;49.184;9.722;2022-11-15T14:27:17;0.98;;;0.85;;
8187;SDS011;4135;49.184;9.722;2022-11-15T14:29:51;1.73;;;1.00;;
8187;SDS011;4135;49.184;9.722;2022-11-15T14:32:23;1.52;;;0.90;;
8187;SDS011;4135;49.184;9.722;2022-11-15T14:34:59;0.93;;;0.70;;
8187;SDS011;4135;49.184;9.722;2022-11-15T14:37:30;2.25;;;1.05;;
8187;SDS011;4135;49.184;9.722;2022-11-15T14:40:05;2.90;;;1.42;;
8187;SDS011;4135;49.184;9.722;2022-11-15T14:42:35;2.42;;;1.00;;
8187;SDS011;4135;49.184;9.722;2022-11-15T14:45:09;0.82;;;0.70;;
8187;SDS011;4135;49.184;9.722;2022-11-15T14:47:42;1.85;;;1.10;;
8187;SDS011;4135;49.184;9.722;2022-11-15T14:50:13;3.53;;;1.00;;
8187;SDS011;4135;49.184;9.722;2022-11-15T14:52:47;0.88;;;0.77;;
8187;SDS011;4135;49.184;9.722;2022-11-15T14:55:19;1.45;;;0.80;;
8187;SDS011;4135;49.184;9.722;2022-11-15T14:57:54;1.52;;;0.93;;
8187;SDS011;4135;49.184;9.722;2022-11-15T15:00:24;2.17;;;1.08;;
8187;SDS011;4135;49.184;9.722;2022-11-15T15:02:54;3.05;;;0.93;;
8187;SDS011;4135;49.184;9.722;2022-11-15T15:05:24;2.72;;;1.30;;
8187;SDS011;4135;49.184;9.722;2022-11-15T15:08:01;1.15;;;1.00;;
8187;SDS011;4135;49.184;9.722;2022-11-15T15:10:32;2.35;;;1.15;;
8187;SDS011;4135;49.184;9.722;2022-11-15T15:13:04;1.33;;;0.70;;
8187;SDS011;4135;49.184;9.722;2022-11-15T15:15:36;2.50;;;1.15;;
8187;SDS011;4135;49.184;9.722;2022-11-15T15:18:06;1.35;;;0.65;;
8187;SDS011;4135;49.184;9.722;2022-11-15T15:20:38;3.42;;;1.45;;
8187;SDS011;4135;49.184;9.722;2022-11-15T15:23:13;2.75;;;1.15;;
8187;SDS011;4135;49.184;9.722;2022-11-15T15:25:45;1.58;;;1.25;;
8187;SDS011;4135;49.184;9.722;2022-11-15T15:28:16;4.00;;;1.20;;
8187;SDS011;4135;49.184;9.722;2022-11-15T15:30:46;2.22;;;1.08;;
8187;SDS011;4135;49.184;9.722;2022-11-15T15:33:15;2.47;;;1.30;;
8187;SDS011;4135;49.184;9.722;2022-11-15T15:35:45;3.92;;;1.38;;
8187;SDS011;4135;49.184;9.722;2022-11-15T15:38:15;3.80;;;1.50;;
8187;SDS011;4135;49.184;9.722;2022-11-15T15:40:44;2.92;;;1.42;;
8187;SDS011;4135;49.184;9.722;2022-11-15T15:43:14;3.63;;;2.00;;
8187;SDS011;4135;49.184;9.722;2022-11-15T15:45:43;2.70;;;1.52;;
8187;SDS011;4135;49.184;9.722;2022-11-15T15:48:14;2.88;;;1.92;;
8187;SDS011;4135;49.184;9.722;2022-11-15T15:50:45;4.32;;;1.90;;
8187;SDS011;4135;49.184;9.722;2022-11-15T15:53:14;5.18;;;2.05;;
8187;SDS011;4135;49.184;9.722;2022-11-15T15:55:44;4.35;;;1.90;;
8187;SDS011;4135;49.184;9.722;2022-11-15T15:58:14;4.40;;;2.42;;
8187;SDS011;4135;49.184;9.722;2022-11-15T16:00:43;4.78;;;2.45;;
8187;SDS011;4135;49.184;9.722;2022-11-15T16:03:12;4.55;;;2.55;;
8187;SDS011;4135;49.184;9.722;2022-11-15T16:05:42;7.95;;;2.30;;
8187;SDS011;4135;49.184;9.722;2022-11-15T16:08:19;7.00;;;2.50;;
8187;SDS011;4135;49.184;9.722;2022-11-15T16:10:53;5.05;;;2.92;;
8187;SDS011;4135;49.184;9.722;2022-11-15T16:13:22;3.53;;;2.55;;
8187;SDS011;4135;49.184;9.722;2022-11-15T16:15:52;4.78;;;2.50;;
8187;SDS011;4135;49.184;9.722;2022-11-15T16:18:23;7.68;;;2.92;;
8187;SDS011;4135;49.184;9.722;2022-11-15T16:20:52;4.78;;;2.85;;
8187;SDS011;4135;49.184;9.722;2022-11-15T16:23:25;3.88;;;2.72;;
8187;SDS011;4135;49.184;9.722;2022-11-15T16:25:55;5.10;;;3.47;;
8187;SDS011;4135;49.184;9.722;2022-11-15T16:28:26;5.38;;;3.20;;
8187;SDS011;4135;49.184;9.722;2022-11-15T16:31:04;8.07;;;2.70;;
8187;SDS011;4135;49.184;9.722;2022-11-15T16:33:37;4.57;;;3.13;;
8187;SDS011;4135;49.184;9.722;2022-11-15T16:36:14;6.28;;;2.78;;
8187;SDS011;4135;49.184;9.722;2022-11-15T16:38:52;4.18;;;2.20;;
8187;SDS011;4135;49.184;9.722;2022-11-15T16:41:22;3.38;;;2.45;;
8187;SDS011;4135;49.184;9.722;2022-11-15T16:43:51;4.00;;;2.70;;
8187;SDS011;4135;49.184;9.722;2022-11-15T16:46:22;7.38;;;3.00;;
8187;SDS011;4135;49.184;9.722;2022-11-15T16:48:53;8.35;;;3.08;;
8187;SDS011;4135;49.184;9.722;2022-11-15T16:51:23;9.43;;;3.33;;
8187;SDS011;4135;49.184;9.722;2022-11-15T16:53:52;6.50;;;2.30;;
8187;SDS011;4135;49.184;9.722;2022-11-15T16:58:56;8.77;;;3.05;;
8187;SDS011;4135;49.184;9.722;2022-11-15T17:01:27;7.00;;;2.88;;
8187;SDS011;4135;49.184;9.722;2022-11-15T17:03:58;3.20;;;2.00;;
8187;SDS011;4135;49.184;9.722;2022-11-15T17:06:27;2.60;;;2.22;;
8187;SDS011;4135;49.184;9.722;2022-11-15T17:08:57;5.55;;;2.72;;
8187;SDS011;4135;49.184;9.722;2022-11-15T17:11:27;3.63;;;2.42;;
8187;SDS011;4135;49.184;9.722;2022-11-15T17:13:57;3.95;;;2.20;;
8187;SDS011;4135;49.184;9.722;2022-11-15T17:16:27;3.30;;;2.13;;
8187;SDS011;4135;49.184;9.722;2022-11-15T17:18:56;4.10;;;2.20;;
8187;SDS011;4135;49.184;9.722;2022-11-15T17:21:26;3.53;;;1.80;;
8187;SDS011;4135;49.184;9.722;2022-11-15T17:23:57;4.55;;;2.10;;
8187;SDS011;4135;49.184;9.722;2022-11-15T17:26:27;4.32;;;2.30;;
8187;SDS011;4135;49.184;9.722;2022-11-15T17:28:57;7.00;;;2.50;;
8187;SDS011;4135;49.184;9.722;2022-11-15T17:31:28;3.80;;;1.90;;
8187;SDS011;4135;49.184;9.722;2022-11-15T17:34:02;2.22;;;1.80;;
8187;SDS011;4135;49.184;9.722;2022-11-15T17:36:33;3.92;;;2.00;;
8187;SDS011;4135;49.184;9.722;2022-11-15T17:39:03;6.35;;;2.38;;
8187;SDS011;4135;49.184;9.722;2022-11-15T17:41:33;4.75;;;2.20;;
8187;SDS011;4135;49.184;9.722;2022-11-15T17:44:03;2.58;;;1.52;;
8187;SDS011;4135;49.184;9.722;2022-11-15T17:46:32;3.20;;;1.98;;
8187;SDS011;4135;49.184;9.722;2022-11-15T17:49:04;3.83;;;1.80;;
8187;SDS011;4135;49.184;9.722;2022-11-15T17:51:33;4.03;;;2.03;;
8187;SDS011;4135;49.184;9.722;2022-11-15T17:54:03;2.53;;;1.65;;
8187;SDS011;4135;49.184;9.722;2022-11-15T17:56:33;4.57;;;1.95;;
8187;SDS011;4135;49.184;9.722;2022-11-15T17:59:08;2.92;;;1.73;;
8187;SDS011;4135;49.184;9.722;2022-11-15T18:01:37;2.85;;;1.73;;
8187;SDS011;4135;49.184;9.722;2022-11-15T18:04:07;5.30;;;1.98;;